Archival Weather

Heathrow

London, United Kingdom (EGLL)

Report from: Friday, June 21, 2024 8:20 AM BST
Current time: Sunday, July 14, 2024 11:07 AM BST

Current weather – Weather history – Daily summaries
Weather forecast

Temperature17.0°C (62.6°F)
Dew point12.0°C (53.6°F)
Winds 4 kts (2.1 m/s, 4.6 mph) Vrb
Winds variableWinds variable from South-Southeast (150°) to West (260°)
Visibility6.2 mi. (10 km)
Clouds Sky clear
Altimeter29.97 in.Hg (1015 mB)
Relative humidity72 %
Density altitude373 ft. (114 m)
Remarks Fully automated report
No clouds detected
Flight conditions Visual Meteorological Conditions
Raw dataEGLL 210720Z AUTO 22004KT 150V260 9999 NCD 17/12 Q1015
An error has occurred. This application may no longer respond until reloaded. Reload 🗙